createdAt,value
2018-07-17T00:01:21.895Z,5.30
2018-07-17T00:06:12.766Z,5.40
2018-07-17T00:11:04.396Z,4.93
2018-07-17T00:15:56.039Z,5.33
2018-07-17T00:20:47.706Z,4.90
2018-07-17T00:25:38.639Z,6.37
2018-07-17T00:30:29.562Z,5.47
2018-07-17T00:35:20.474Z,5.80
2018-07-17T00:40:11.370Z,5.30
2018-07-17T00:45:02.257Z,5.30
2018-07-17T00:49:53.153Z,5.50
2018-07-17T00:54:44.058Z,5.63
2018-07-17T00:59:34.958Z,5.53
2018-07-17T01:04:31.981Z,6.07
2018-07-17T01:09:29.790Z,5.27
2018-07-17T01:14:20.690Z,4.83
2018-07-17T01:19:12.373Z,5.90
2018-07-17T01:24:03.266Z,5.50
2018-07-17T01:28:54.167Z,5.20
2018-07-17T01:33:45.070Z,4.80
2018-07-17T01:38:36.714Z,5.30
2018-07-17T01:43:28.354Z,5.60
2018-07-17T01:48:20.004Z,6.30
2018-07-17T01:53:10.901Z,5.87
2018-07-17T01:58:02.542Z,5.50
2018-07-17T02:02:54.171Z,5.80
2018-07-17T02:07:52.770Z,5.50
2018-07-17T02:12:44.416Z,5.27
2018-07-17T02:17:35.319Z,6.00
2018-07-17T02:22:26.957Z,5.77
2018-07-17T02:27:18.591Z,5.23
2018-07-17T02:32:10.245Z,5.93
2018-07-17T02:37:01.207Z,6.90
2018-07-17T02:41:52.096Z,5.83
2018-07-17T02:46:43.068Z,5.90
2018-07-17T02:51:33.906Z,6.13
2018-07-17T02:56:25.540Z,5.27
2018-07-17T03:01:17.202Z,6.00
2018-07-17T03:06:08.106Z,5.80
2018-07-17T03:10:59.023Z,6.17
2018-07-17T03:15:49.909Z,6.47
2018-07-17T03:20:40.797Z,5.60
2018-07-17T03:25:31.692Z,6.53
2018-07-17T03:30:22.635Z,6.77
2018-07-17T03:35:13.534Z,6.20
2018-07-17T03:40:04.428Z,6.33
2018-07-17T03:44:55.389Z,6.03
2018-07-17T03:49:46.290Z,5.67
2018-07-17T03:54:37.211Z,6.47
2018-07-17T03:59:28.106Z,6.00
2018-07-17T04:04:19.015Z,6.83
2018-07-17T04:09:09.981Z,6.50
2018-07-17T04:14:00.895Z,6.73
2018-07-17T04:18:51.804Z,5.30
2018-07-17T04:23:42.707Z,5.63
2018-07-17T04:28:33.656Z,6.43
2018-07-17T04:33:24.576Z,6.27
2018-07-17T04:38:15.489Z,5.70
2018-07-17T04:43:06.361Z,6.17
2018-07-17T04:47:58.007Z,6.10
2018-07-17T04:52:48.911Z,7.23
2018-07-17T04:57:40.566Z,6.20
2018-07-17T05:02:31.466Z,6.13
2018-07-17T05:07:23.167Z,7.10
2018-07-17T05:12:14.093Z,7.23
2018-07-17T05:17:04.987Z,7.20
2018-07-17T05:21:55.883Z,7.17
2018-07-17T05:26:46.768Z,6.87
2018-07-17T05:31:38.394Z,6.90
2018-07-17T05:36:29.276Z,8.33
2018-07-17T05:41:20.191Z,6.90
2018-07-17T05:46:11.093Z,7.37
2018-07-17T05:51:02.018Z,6.77
2018-07-17T05:55:52.909Z,6.80
2018-07-17T06:00:43.823Z,6.50
2018-07-17T06:05:35.578Z,7.17
2018-07-17T06:10:26.574Z,7.27
2018-07-17T06:15:17.434Z,7.63
2018-07-17T06:20:08.382Z,7.90
2018-07-17T06:24:59.293Z,6.40
2018-07-17T06:29:50.199Z,6.80
2018-07-17T06:34:41.143Z,8.00
2018-07-17T06:39:32.147Z,6.80
2018-07-17T06:44:23.074Z,7.40
2018-07-17T06:49:14.008Z,7.60
2018-07-17T06:54:04.919Z,7.17
2018-07-17T06:58:55.817Z,7.17
2018-07-17T07:03:46.729Z,7.47
2018-07-17T07:08:37.654Z,11.17
2018-07-17T07:13:28.562Z,7.07
2018-07-17T07:18:19.471Z,7.97
2018-07-17T07:23:10.407Z,7.60
2018-07-17T07:28:01.276Z,6.80
2018-07-17T07:32:52.906Z,7.87
2018-07-17T07:37:44.556Z,6.93
2018-07-17T07:42:35.458Z,6.80
2018-07-17T07:47:27.162Z,7.10
2018-07-17T07:52:18.090Z,7.17
2018-07-17T07:57:08.992Z,6.10
2018-07-17T08:01:59.882Z,6.83
2018-07-17T08:06:50.771Z,7.27
2018-07-17T08:11:42.431Z,6.57
2018-07-17T08:16:33.390Z,7.93
2018-07-17T08:21:24.285Z,6.97
2018-07-17T08:26:15.213Z,7.63
2018-07-17T08:31:06.139Z,6.60
2018-07-17T08:35:57.070Z,6.80
2018-07-17T08:40:47.990Z,6.67
2018-07-17T08:45:38.889Z,6.27
2018-07-17T08:50:29.781Z,6.40
2018-07-17T08:55:20.685Z,5.70
2018-07-17T09:00:11.577Z,5.37
2018-07-17T09:05:02.485Z,6.30
2018-07-17T09:09:54.132Z,6.50
2018-07-17T09:14:45.031Z,5.63
2018-07-17T09:19:35.938Z,5.77
2018-07-17T09:24:26.845Z,6.17
2018-07-17T09:29:17.754Z,6.30
2018-07-17T09:34:08.639Z,6.20
2018-07-17T09:39:00.406Z,6.23
2018-07-17T09:43:51.240Z,7.03
2018-07-17T09:48:42.140Z,6.80
2018-07-17T09:53:33.037Z,6.17
2018-07-17T09:58:24.683Z,6.50
2018-07-17T10:03:15.631Z,6.60
2018-07-17T10:08:06.535Z,5.70
2018-07-17T10:12:57.446Z,5.97
2018-07-17T10:17:48.352Z,8.50
2018-07-17T10:22:39.309Z,5.90
2018-07-17T10:27:30.202Z,5.70
2018-07-17T10:32:21.092Z,5.17
2018-07-17T10:37:12.813Z,6.07
2018-07-17T10:42:03.699Z,5.90
2018-07-17T10:46:55.336Z,5.97
2018-07-17T10:51:46.257Z,5.20
2018-07-17T10:56:37.192Z,4.60
2018-07-17T11:01:28.098Z,4.63
2018-07-17T11:06:18.996Z,5.50
2018-07-17T11:11:10.002Z,5.17
2018-07-17T11:16:00.956Z,4.90
2018-07-17T11:20:51.861Z,4.97
2018-07-17T11:25:42.849Z,4.43
2018-07-17T11:30:33.758Z,5.70
2018-07-17T11:35:25.423Z,4.80
2018-07-17T11:40:16.330Z,4.77
2018-07-17T11:45:07.239Z,6.77
2018-07-17T11:49:58.203Z,6.43
2018-07-17T11:54:49.112Z,5.40
2018-07-17T11:59:40.129Z,4.80
2018-07-17T12:04:30.939Z,5.77
2018-07-17T12:09:21.886Z,5.40
2018-07-17T12:14:12.797Z,5.13
2018-07-17T12:19:03.711Z,5.30
2018-07-17T12:23:55.360Z,5.00
2018-07-17T12:28:46.293Z,4.80
2018-07-17T12:33:37.945Z,4.90
2018-07-17T12:38:29.580Z,5.10
2018-07-17T12:43:21.225Z,5.00
2018-07-17T12:48:12.132Z,4.77
2018-07-17T12:53:03.772Z,5.70
2018-07-17T12:57:55.446Z,5.17
2018-07-17T13:02:46.376Z,5.23
2018-07-17T13:07:37.300Z,5.33
2018-07-17T13:12:28.194Z,5.20
2018-07-17T13:17:19.100Z,4.50
2018-07-17T13:22:09.989Z,4.80
2018-07-17T13:27:01.625Z,4.30
2018-07-17T13:31:54.058Z,4.70
2018-07-17T13:36:44.965Z,5.00
2018-07-17T13:41:35.890Z,4.23
2018-07-17T13:46:26.806Z,4.40
2018-07-17T13:51:17.707Z,3.60
2018-07-17T13:56:08.661Z,3.90
2018-07-17T14:00:59.523Z,4.47
2018-07-17T14:05:50.417Z,4.60
2018-07-17T14:10:42.222Z,4.80
2018-07-17T14:15:33.777Z,4.73
2018-07-17T14:20:25.426Z,4.30
2018-07-17T14:25:17.051Z,5.50
2018-07-17T14:30:15.917Z,5.07
2018-07-17T14:35:06.934Z,4.97
2018-07-17T14:39:57.840Z,5.10
2018-07-17T14:44:48.739Z,4.90
2018-07-17T14:49:39.695Z,5.13
2018-07-17T14:54:30.613Z,4.77
2018-07-17T14:59:21.628Z,4.90
2018-07-17T15:04:13.275Z,4.67
2018-07-17T15:09:04.176Z,4.80
2018-07-17T15:13:55.109Z,5.23
2018-07-17T15:18:45.995Z,5.17
2018-07-17T15:23:36.954Z,4.80
2018-07-17T15:28:27.847Z,5.53
2018-07-17T15:33:18.743Z,5.63
2018-07-17T15:38:09.635Z,5.07
2018-07-17T15:43:01.269Z,5.40
2018-07-17T15:47:52.893Z,5.30
2018-07-17T15:52:44.554Z,5.13
2018-07-17T15:57:36.191Z,5.80
2018-07-17T16:02:27.820Z,5.13
2018-07-17T16:07:19.545Z,5.97
2018-07-17T16:12:11.214Z,5.90
2018-07-17T16:17:02.139Z,5.40
2018-07-17T16:21:53.028Z,5.97
2018-07-17T16:26:44.719Z,5.50
2018-07-17T16:31:35.639Z,5.60
2018-07-17T16:36:26.537Z,6.17
2018-07-17T16:41:17.476Z,6.50
2018-07-17T16:46:08.383Z,6.27
2018-07-17T16:50:59.286Z,6.37
2018-07-17T16:55:50.186Z,6.93
2018-07-17T17:00:41.154Z,7.07
2018-07-17T17:05:32.062Z,8.30
2018-07-17T17:10:22.974Z,8.07
2018-07-17T17:15:13.905Z,8.10
2018-07-17T17:20:04.801Z,7.97
2018-07-17T17:24:55.710Z,8.30
2018-07-17T17:29:46.606Z,8.10
2018-07-17T17:34:38.250Z,8.17
2018-07-17T17:39:29.182Z,7.70
2018-07-17T17:44:20.058Z,8.33
2018-07-17T17:49:10.963Z,8.30
2018-07-17T17:54:01.864Z,8.73
2018-07-17T17:58:52.775Z,8.20
2018-07-17T18:03:43.698Z,9.40
2018-07-17T18:08:34.605Z,8.63
2018-07-17T18:13:25.504Z,8.70
2018-07-17T18:18:16.478Z,8.77
2018-07-17T18:23:07.368Z,8.93
2018-07-17T18:27:58.256Z,8.53
2018-07-17T18:32:49.144Z,8.57
2018-07-17T18:37:40.784Z,9.17
2018-07-17T18:42:32.429Z,8.33
2018-07-17T18:47:24.068Z,8.87
2018-07-17T18:52:15.017Z,8.87
2018-07-17T18:57:06.620Z,9.33
2018-07-17T19:01:58.245Z,9.43
2018-07-17T19:06:50.023Z,8.87
2018-07-17T19:11:40.925Z,8.87
2018-07-17T19:16:31.834Z,8.03
2018-07-17T19:21:22.810Z,9.30
2018-07-17T19:26:13.718Z,9.10
2018-07-17T19:31:04.609Z,9.63
2018-07-17T19:35:55.531Z,9.13
2018-07-17T19:40:46.522Z,9.23
2018-07-17T19:45:37.402Z,9.03
2018-07-17T19:50:28.321Z,8.40
2018-07-17T19:55:19.340Z,10.30
2018-07-17T20:00:10.238Z,8.20
2018-07-17T20:05:01.133Z,9.13
2018-07-17T20:09:52.096Z,9.80
2018-07-17T20:14:43.007Z,8.73
2018-07-17T20:19:34.750Z,9.53
2018-07-17T20:24:25.638Z,8.80
2018-07-17T20:29:16.543Z,9.67
2018-07-17T20:34:07.428Z,9.13
2018-07-17T20:38:58.434Z,9.47
2018-07-17T20:43:49.324Z,9.53
2018-07-17T20:48:40.248Z,9.23
2018-07-17T20:53:31.198Z,8.80
2018-07-17T20:58:22.105Z,9.40
2018-07-17T21:03:13.005Z,7.53
2018-07-17T21:08:04.650Z,9.90
2018-07-17T21:12:55.586Z,8.93
2018-07-17T21:17:46.484Z,8.50
2018-07-17T21:22:37.392Z,8.40
2018-07-17T21:27:28.319Z,9.60
2018-07-17T21:32:19.240Z,8.93
2018-07-17T21:37:10.170Z,10.13
2018-07-17T21:42:01.082Z,9.10
2018-07-17T21:46:51.983Z,9.43
2018-07-17T21:51:42.880Z,9.17
2018-07-17T21:56:33.786Z,9.47
2018-07-17T22:01:24.680Z,10.70
2018-07-17T22:06:16.381Z,9.00
2018-07-17T22:11:07.294Z,9.00
2018-07-17T22:15:58.224Z,9.10
2018-07-17T22:20:49.136Z,9.40
2018-07-17T22:25:40.780Z,9.73
2018-07-17T22:30:32.416Z,9.37
2018-07-17T22:35:23.300Z,9.83
2018-07-17T22:40:14.252Z,8.30
2018-07-17T22:45:05.154Z,9.50
2018-07-17T22:49:56.109Z,9.40
2018-07-17T22:54:47.008Z,9.40
2018-07-17T22:59:37.910Z,8.93
2018-07-17T23:04:28.816Z,9.37
2018-07-17T23:09:19.743Z,9.87
2018-07-17T23:14:10.665Z,9.23
2018-07-17T23:19:01.623Z,9.17
2018-07-17T23:23:52.518Z,9.50
2018-07-17T23:28:43.418Z,10.00
2018-07-17T23:33:34.321Z,9.77
2018-07-17T23:38:25.296Z,10.33
2018-07-17T23:43:16.196Z,8.67
2018-07-17T23:48:07.121Z,9.27
2018-07-17T23:52:58.025Z,10.13
2018-07-17T23:57:48.932Z,10.40
